Time;durP1;ratioP1;P1;durP2;ratioP2;P2;SDS_P1;SDS_P2;PMS_P1;PMS_P2;Temp;Humidity;BMP_temperature;BMP_pressure;BME280_temperature;BME280_humidity;BME280_pressure;Samples;Min_cycle;Max_cycle;Signal;HPM_P1;HPM_P2
2022/07/03 00:00:19;;;;;;;4.17;3.77;;;;;;;18.47;91.48;101817.66;5071480;28;20962;-51
2022/07/03 00:02:48;;;;;;;4.43;3.67;;;;;;;18.50;90.99;101819.94;5073536;28;20476;-45
2022/07/03 00:05:17;;;;;;;4.67;3.97;;;;;;;18.52;92.01;101808.88;5075223;28;20469;-45
2022/07/03 00:07:45;;;;;;;3.97;3.70;;;;;;;18.51;92.66;101815.38;5075214;28;20444;-46
2022/07/03 00:10:12;;;;;;;4.87;3.57;;;;;;;18.51;92.67;101812.66;5075339;28;20430;-47
2022/07/03 00:12:40;;;;;;;4.03;3.50;;;;;;;18.52;92.46;101795.38;5074449;28;20454;-45
2022/07/03 00:15:09;;;;;;;8.47;3.77;;;;;;;18.52;91.81;101796.22;5075102;28;20428;-50
2022/07/03 00:17:36;;;;;;;3.30;3.10;;;;;;;18.51;92.49;101791.06;5075015;28;20825;-46
2022/07/03 00:20:06;;;;;;;3.47;3.23;;;;;;;18.47;93.07;101792.50;5075003;28;20430;-46
2022/07/03 00:22:41;;;;;;;6.20;3.30;;;;;;;18.47;92.81;101795.19;5074382;28;20575;-47
2022/07/03 00:25:11;;;;;;;4.07;3.67;;;;;;;18.46;92.63;101786.28;5074973;28;20830;-46
2022/07/03 00:27:40;;;;;;;3.93;3.50;;;;;;;18.45;92.82;101779.25;5075007;28;20438;-44
2022/07/03 00:30:08;;;;;;;3.80;3.50;;;;;;;18.45;92.97;101770.31;5074846;28;20776;-50
2022/07/03 00:32:41;;;;;;;3.50;3.20;;;;;;;18.47;92.88;101770.91;5026756;28;20467;-50
2022/07/03 00:35:17;;;;;;;3.50;3.30;;;;;;;18.47;92.72;101765.50;4984853;28;20860;-45
2022/07/03 00:37:45;;;;;;;3.70;3.50;;;;;;;18.48;92.56;101759.88;4992148;28;20445;-46
2022/07/03 00:40:13;;;;;;;4.17;3.40;;;;;;;18.49;92.41;101763.41;4992073;28;20934;-46
2022/07/03 00:42:41;;;;;;;3.00;2.80;;;;;;;18.49;92.22;101758.84;4991205;28;20462;-47
2022/07/03 00:45:09;;;;;;;3.73;3.47;;;;;;;18.51;92.03;101755.94;4991977;28;20479;-47
2022/07/03 00:47:37;;;;;;;4.37;3.27;;;;;;;18.49;92.29;101755.31;4992204;28;20437;-44
2022/07/03 00:50:08;;;;;;;3.40;3.20;;;;;;;18.49;92.39;101749.91;4992054;28;20433;-47
2022/07/03 00:52:38;;;;;;;3.57;3.10;;;;;;;18.47;92.20;101743.88;4991483;28;20817;-48
2022/07/03 00:55:08;;;;;;;3.60;3.30;;;;;;;18.43;94.10;101734.59;4991878;28;20433;-45
2022/07/03 00:57:45;;;;;;;5.63;3.40;;;;;;;18.43;93.88;101740.81;4992093;28;20443;-45
2022/07/03 01:00:14;;;;;;;4.83;3.20;;;;;;;18.44;93.73;101744.34;4992072;28;20452;-45
2022/07/03 01:02:51;;;;;;;3.13;2.70;;;;;;;18.44;93.39;101731.66;4991102;28;20468;-48
2022/07/03 01:05:33;;;;;;;3.50;3.20;;;;;;;18.45;93.85;101741.44;4991741;28;21004;-48
2022/07/03 01:08:11;;;;;;;2.93;2.73;;;;;;;18.45;93.86;101729.78;4991933;28;20445;-47
2022/07/03 01:10:55;;;;;;;3.80;3.50;;;;;;;18.47;93.83;101723.09;4991656;28;20952;-49
2022/07/03 01:13:32;;;;;;;3.20;3.10;;;;;;;18.48;93.92;101721.25;4989975;28;20475;-46
2022/07/03 01:16:06;;;;;;;5.20;3.70;;;;;;;18.47;94.94;101711.47;4991550;28;20422;-49
2022/07/03 01:18:44;;;;;;;4.30;3.90;;;;;;;18.49;95.06;101714.78;4991816;28;20448;-47
2022/07/03 01:21:37;;;;;;;3.50;3.20;;;;;;;18.52;94.90;101709.78;4991236;28;20445;-45
2022/07/03 01:24:38;;;;;;;4.10;3.70;;;;;;;18.55;94.88;101711.19;4991211;28;20456;-48
2022/07/03 01:27:11;;;;;;;4.67;3.20;;;;;;;18.56;94.98;101708.28;4991687;28;20445;-46
2022/07/03 01:29:51;;;;;;;4.53;3.57;;;;;;;18.57;95.06;101703.72;4991372;28;20563;-47
2022/07/03 01:32:23;;;;;;;4.77;3.70;;;;;;;18.58;95.61;101705.34;4985579;27;20472;-48
2022/07/03 01:34:54;;;;;;;7.20;3.93;;;;;;;18.58;95.37;101703.47;5029390;28;20429;-46
2022/07/03 01:37:24;;;;;;;4.10;3.70;;;;;;;18.59;95.83;101705.13;5073605;28;20430;-46
2022/07/03 01:39:54;;;;;;;4.60;4.00;;;;;;;18.59;96.28;101699.72;5073751;28;20444;-47
2022/07/03 01:42:25;;;;;;;7.07;4.17;;;;;;;18.55;97.73;101692.28;5072988;28;20458;-45
2022/07/03 01:44:55;;;;;;;4.40;4.10;;;;;;;18.54;98.46;101682.56;5073434;28;20470;-45
2022/07/03 01:47:25;;;;;;;4.53;3.63;;;;;;;18.54;98.67;101677.16;5073273;28;20810;-48
2022/07/03 01:49:56;;;;;;;4.40;4.10;;;;;;;18.53;98.40;101675.50;5073605;28;20431;-46
2022/07/03 01:52:26;;;;;;;5.03;4.03;;;;;;;18.51;98.28;101669.50;5072695;28;20493;-50
2022/07/03 01:55:13;;;;;;;4.30;3.90;;;;;;;18.46;97.87;101666.59;5073278;28;20452;-46
2022/07/03 01:57:44;;;;;;;4.40;4.10;;;;;;;18.47;97.58;101671.78;5073075;28;20525;-46
2022/07/03 02:00:14;;;;;;;7.33;3.83;;;;;;;18.50;97.03;101660.56;5073363;28;20438;-50
2022/07/03 02:02:46;;;;;;;6.63;3.77;;;;;;;18.49;96.67;101660.78;5072290;28;20462;-46
2022/07/03 02:05:27;;;;;;;4.30;3.60;;;;;;;18.49;96.57;101663.47;5072940;28;20466;-46
2022/07/03 02:08:03;;;;;;;4.33;4.03;;;;;;;18.49;96.58;101658.06;5072971;28;20449;-46
2022/07/03 02:10:35;;;;;;;3.93;3.47;;;;;;;18.48;96.63;101653.72;5073121;28;20464;-46
2022/07/03 02:13:15;;;;;;;4.53;3.60;;;;;;;18.46;97.03;101658.50;5072137;28;20979;-46
2022/07/03 02:15:44;;;;;;;7.60;4.07;;;;;;;18.43;97.14;101657.06;5072897;28;20469;-48
2022/07/03 02:18:25;;;;;;;5.73;4.13;;;;;;;18.44;97.24;101656.03;5072862;28;20437;-48
2022/07/03 02:21:03;;;;;;;8.40;3.70;;;;;;;18.45;97.36;101649.59;5072887;28;20413;-49
2022/07/03 02:23:33;;;;;;;4.90;4.57;;;;;;;18.46;97.08;101653.09;5071913;28;20473;-45
2022/07/03 02:26:04;;;;;;;4.93;3.50;;;;;;;18.46;96.89;101648.53;5072541;28;20469;-49
2022/07/03 02:28:46;;;;;;;3.80;3.50;;;;;;;18.46;96.45;101653.94;5072586;28;20444;-47
2022/07/03 02:31:17;;;;;;;4.23;3.77;;;;;;;18.47;96.11;101652.06;5072496;28;20433;-46
2022/07/03 02:33:47;;;;;;;4.10;3.57;;;;;;;18.46;95.54;101645.81;5021053;28;20453;-48
2022/07/03 02:36:20;;;;;;;4.40;4.00;;;;;;;18.46;95.25;101647.69;4990499;28;20426;-49
2022/07/03 02:38:54;;;;;;;4.47;3.60;;;;;;;18.44;94.81;101649.81;4990313;28;20425;-47
2022/07/03 02:41:28;;;;;;;3.40;3.13;;;;;;;18.41;94.89;101645.69;4990044;28;20429;-44
2022/07/03 02:44:01;;;;;;;4.00;3.73;;;;;;;18.39;94.78;101633.47;4990202;28;20454;-45
2022/07/03 02:46:51;;;;;;;5.20;4.03;;;;;;;18.34;94.46;101638.72;4990346;28;20488;-49
2022/07/03 02:49:34;;;;;;;4.33;3.50;;;;;;;18.30;94.57;101635.66;4990192;28;21048;-45
2022/07/03 02:52:13;;;;;;;2.63;2.53;;;;;;;18.28;94.50;101634.22;4989523;28;20457;-45
2022/07/03 02:54:46;;;;;;;4.53;3.40;;;;;;;18.24;94.34;101628.44;4990162;28;20460;-44
2022/07/03 02:57:15;;;;;;;4.67;3.83;;;;;;;18.21;94.12;101628.91;4990189;28;20438;-44
2022/07/03 02:59:54;;;;;;;3.33;3.13;;;;;;;18.19;93.75;101622.88;4990055;28;20442;-46
2022/07/03 03:02:47;;;;;;;3.63;3.40;;;;;;;18.15;93.73;101611.72;4989275;28;20453;-47
2022/07/03 03:05:22;;;;;;;3.23;3.03;;;;;;;18.12;93.57;101611.34;4987360;28;20849;-47
2022/07/03 03:07:57;;;;;;;3.50;3.20;;;;;;;18.08;93.55;101608.28;4989678;28;20444;-47
2022/07/03 03:10:25;;;;;;;3.30;3.10;;;;;;;18.05;93.72;101613.28;4989771;28;20429;-45
2022/07/03 03:13:01;;;;;;;4.73;3.40;;;;;;;18.03;93.65;101616.22;4988884;28;20476;-46
2022/07/03 03:15:31;;;;;;;3.63;3.40;;;;;;;18.03;93.38;101620.78;4990031;28;20428;-50
2022/07/03 03:18:03;;;;;;;3.70;3.20;;;;;;;18.00;93.29;101615.84;4989954;28;20461;-46
2022/07/03 03:20:33;;;;;;;3.17;2.97;;;;;;;17.99;93.22;101614.19;4989850;28;20433;-44
2022/07/03 03:23:20;;;;;;;3.80;3.60;;;;;;;17.96;93.25;101610.06;4988922;28;20473;-50
2022/07/03 03:25:48;;;;;;;3.33;3.13;;;;;;;17.95;93.17;101604.91;4989527;28;20473;-44
2022/07/03 03:28:15;;;;;;;4.60;3.33;;;;;;;17.92;92.93;101602.66;4989785;28;20437;-45
2022/07/03 03:30:44;;;;;;;3.97;3.50;;;;;;;17.92;93.03;101592.66;4990070;28;20440;-49
2022/07/03 03:33:13;;;;;;;3.93;3.60;;;;;;;17.94;93.02;101601.38;4980690;28;20477;-51
2022/07/03 03:35:41;;;;;;;3.87;3.57;;;;;;;17.98;93.03;101596.38;5057184;28;20426;-47
2022/07/03 03:38:08;;;;;;;3.87;3.67;;;;;;;18.03;92.82;101601.91;5071481;28;20440;-49
2022/07/03 03:40:36;;;;;;;3.13;2.93;;;;;;;18.05;92.36;101602.50;5071784;28;20434;-51
2022/07/03 03:43:04;;;;;;;4.20;3.90;;;;;;;18.07;92.31;101611.22;5070848;28;20472;-48
2022/07/03 03:45:32;;;;;;;3.83;3.50;;;;;;;18.10;92.00;101605.34;5071508;28;20435;-47
2022/07/03 03:48:01;;;;;;;3.37;3.17;;;;;;;18.12;91.89;101600.56;5071466;28;20808;-49
2022/07/03 03:50:29;;;;;;;4.80;3.73;;;;;;;18.12;91.67;101601.38;5071584;28;20522;-47
2022/07/03 03:53:00;;;;;;;3.53;3.33;;;;;;;18.14;91.71;101599.28;5070557;28;21033;-46
2022/07/03 03:55:27;;;;;;;5.37;4.10;;;;;;;18.15;91.45;101603.63;5071475;28;20430;-48
2022/07/03 03:57:55;;;;;;;5.60;3.10;;;;;;;18.17;91.37;101598.00;5071475;28;20434;-50
2022/07/03 04:00:22;;;;;;;3.17;2.97;;;;;;;18.19;90.89;101598.59;5071444;28;20434;-48
2022/07/03 04:02:50;;;;;;;3.80;3.40;;;;;;;18.19;91.04;101595.88;5070417;28;20483;-48
2022/07/03 04:05:19;;;;;;;3.10;3.00;;;;;;;18.22;91.02;101590.03;5071517;28;20422;-48
2022/07/03 04:07:47;;;;;;;2.87;2.77;;;;;;;18.21;90.79;101586.53;5071116;28;20473;-48
2022/07/03 04:10:14;;;;;;;3.60;3.40;;;;;;;18.21;90.48;101593.81;5071457;28;20434;-50
2022/07/03 04:12:42;;;;;;;3.40;3.20;;;;;;;18.21;90.59;101586.53;5070565;28;20465;-49
2022/07/03 04:15:10;;;;;;;4.47;3.80;;;;;;;18.17;90.35;101589.91;5071110;28;20430;-53
2022/07/03 04:17:38;;;;;;;4.07;3.80;;;;;;;18.13;90.90;101592.22;5071383;28;20982;-45
2022/07/03 04:20:06;;;;;;;3.97;3.33;;;;;;;18.15;90.92;101589.31;5071345;28;20456;-48
2022/07/03 04:22:35;;;;;;;3.97;3.77;;;;;;;18.21;91.21;101602.72;5070409;28;20461;-48
2022/07/03 04:25:03;;;;;;;5.93;3.63;;;;;;;18.28;91.29;101602.63;5071159;28;20434;-45
2022/07/03 04:27:32;;;;;;;3.83;3.63;;;;;;;18.45;91.71;101598.28;5071001;28;20469;-47
2022/07/03 04:30:20;;;;;;;3.70;3.50;;;;;;;18.67;91.72;101595.91;5071295;28;20430;-48
2022/07/03 04:32:48;;;;;;;3.63;3.40;;;;;;;18.84;90.97;101602.34;5017124;28;20481;-48
2022/07/03 04:35:16;;;;;;;3.87;3.57;;;;;;;19.05;90.51;101601.81;5042836;28;20422;-50
2022/07/03 04:37:45;;;;;;;3.80;3.50;;;;;;;19.31;90.40;101597.88;5071010;28;20882;-47
2022/07/03 04:40:13;;;;;;;3.50;3.30;;;;;;;19.60;88.77;101599.66;5070909;28;20429;-49
2022/07/03 04:42:41;;;;;;;3.70;3.40;;;;;;;20.11;88.07;101604.34;5070318;28;20469;-49
2022/07/03 04:45:09;;;;;;;3.60;3.40;;;;;;;21.11;86.68;101598.47;5071224;28;20430;-51
2022/07/03 04:47:37;;;;;;;3.50;3.30;;;;;;;22.02;83.68;101601.53;5070894;28;20480;-51
2022/07/03 04:50:05;;;;;;;6.47;3.70;;;;;;;23.44;75.23;101598.44;5073993;28;20791;-49
2022/07/03 04:52:33;;;;;;;4.50;4.30;;;;;;;24.59;71.86;101591.94;5073595;28;20465;-49
2022/07/03 04:55:03;;;;;;;3.70;3.40;;;;;;;25.19;68.66;101588.50;5074307;28;20930;-47
2022/07/03 04:57:30;;;;;;;3.60;3.40;;;;;;;26.49;64.95;101601.34;5074506;28;20430;-46
2022/07/03 04:59:58;;;;;;;3.90;3.70;;;;;;;27.51;59.20;101613.25;5074430;28;20430;-51
2022/07/03 05:02:25;;;;;;;3.70;3.40;;;;;;;28.15;56.26;101612.84;5073602;28;20465;-51
2022/07/03 05:04:53;;;;;;;4.27;4.07;;;;;;;28.01;53.98;101608.06;5074132;28;20442;-48
2022/07/03 05:07:20;;;;;;;2.80;2.70;;;;;;;27.35;53.12;101605.16;5074020;28;20487;-50
2022/07/03 05:09:48;;;;;;;3.43;3.27;;;;;;;26.78;50.66;101611.28;5074316;28;20426;-49
2022/07/03 05:12:17;;;;;;;3.90;3.70;;;;;;;26.17;51.43;101609.94;5073509;28;20823;-46
2022/07/03 05:14:48;;;;;;;3.50;3.30;;;;;;;25.68;51.93;101610.63;5074081;28;20589;-48
2022/07/03 05:17:17;;;;;;;3.10;3.00;;;;;;;25.22;52.95;101608.97;5074128;28;20434;-48
2022/07/03 05:19:45;;;;;;;4.00;3.70;;;;;;;24.90;53.52;101608.41;5073895;28;20436;-47
2022/07/03 05:22:13;;;;;;;4.57;3.60;;;;;;;24.81;54.57;101608.13;5073291;28;20891;-47
2022/07/03 05:24:41;;;;;;;3.63;3.33;;;;;;;24.48;54.69;101609.38;5073756;28;20979;-49
2022/07/03 05:27:09;;;;;;;3.97;3.77;;;;;;;24.68;54.89;101609.44;5073677;28;20978;-47
2022/07/03 05:29:37;;;;;;;6.60;3.67;;;;;;;24.77;54.63;101609.72;5073812;28;20438;-46
2022/07/03 05:32:07;;;;;;;4.17;3.87;;;;;;;24.77;54.67;101604.25;5043665;28;20462;-52
2022/07/03 05:34:34;;;;;;;4.00;3.70;;;;;;;24.59;54.79;101612.94;5021552;28;20454;-50
2022/07/03 05:37:02;;;;;;;4.53;4.23;;;;;;;24.87;53.73;101607.06;5073758;28;20437;-48
2022/07/03 05:39:37;;;;;;;3.77;3.57;;;;;;;25.07;53.93;101612.53;5073764;28;20440;-48
2022/07/03 05:42:06;;;;;;;4.10;3.90;;;;;;;25.58;53.39;101610.63;5072258;28;20465;-48
2022/07/03 05:44:33;;;;;;;4.23;3.93;;;;;;;25.57;53.21;101605.44;5073180;28;20589;-46
2022/07/03 05:47:02;;;;;;;3.70;3.50;;;;;;;25.76;52.08;101598.31;5073181;28;20470;-48
2022/07/03 05:49:30;;;;;;;3.47;3.37;;;;;;;26.13;51.29;101604.22;5073246;28;20426;-46
2022/07/03 05:51:57;;;;;;;3.50;3.30;;;;;;;27.31;50.61;101603.25;5072605;28;20962;-46
2022/07/03 05:54:25;;;;;;;4.40;3.80;;;;;;;28.32;48.51;101603.03;5073109;28;20452;-47
2022/07/03 05:56:53;;;;;;;4.00;3.70;;;;;;;28.49;47.39;101603.34;5072714;28;20436;-47
2022/07/03 05:59:20;;;;;;;4.03;3.83;;;;;;;28.35;45.62;101607.94;5072593;28;20434;-48
2022/07/03 06:01:48;;;;;;;3.60;3.40;;;;;;;27.94;46.41;101613.06;5072569;28;20464;-47
2022/07/03 06:04:17;;;;;;;3.07;2.97;;;;;;;27.38;46.36;101614.69;5072835;28;20535;-47
2022/07/03 06:06:45;;;;;;;3.83;3.63;;;;;;;26.92;46.41;101616.97;5072957;28;20461;-50
2022/07/03 06:09:12;;;;;;;3.60;3.50;;;;;;;26.68;47.10;101613.25;5073027;28;20436;-49
2022/07/03 06:11:43;;;;;;;3.40;3.20;;;;;;;26.52;47.61;101604.34;5072064;28;20515;-48
2022/07/03 06:14:11;;;;;;;3.03;2.70;;;;;;;26.85;47.25;101606.34;5072438;28;20449;-49
2022/07/03 06:16:39;;;;;;;3.60;3.40;;;;;;;26.98;46.96;101598.59;5073043;28;20794;-46
2022/07/03 06:19:06;;;;;;;4.60;4.30;;;;;;;27.40;46.24;101599.59;5072880;28;20437;-50
2022/07/03 06:21:35;;;;;;;3.83;3.63;;;;;;;28.32;44.14;101603.03;5072107;28;20452;-49
2022/07/03 06:24:03;;;;;;;3.40;3.20;;;;;;;28.44;42.96;101600.66;5072384;28;20450;-50
2022/07/03 06:26:31;;;;;;;4.17;3.50;;;;;;;28.74;42.69;101596.72;5071961;28;20434;-48
2022/07/03 06:28:58;;;;;;;4.47;3.90;;;;;;;28.41;43.55;101597.69;5072668;28;20469;-47
2022/07/03 06:31:26;;;;;;;3.87;3.57;;;;;;;28.15;44.22;101596.41;5067008;28;20434;-46
2022/07/03 06:33:53;;;;;;;3.40;3.20;;;;;;;27.79;44.61;101596.78;4995839;28;20449;-47
2022/07/03 06:36:21;;;;;;;4.30;3.70;;;;;;;27.33;45.15;101601.84;5072441;28;20456;-45
2022/07/03 06:38:50;;;;;;;3.50;3.20;;;;;;;26.98;45.77;101609.53;5072282;28;20426;-47
2022/07/03 06:41:18;;;;;;;6.20;3.63;;;;;;;26.42;46.85;101603.56;5072107;28;20433;-49
2022/07/03 06:43:45;;;;;;;3.87;3.30;;;;;;;25.90;47.97;101607.56;5071912;28;20453;-49
2022/07/03 06:46:13;;;;;;;3.60;3.40;;;;;;;25.46;48.64;101607.34;5072356;28;20436;-48
2022/07/03 06:48:41;;;;;;;3.57;3.27;;;;;;;24.94;50.04;101606.78;5072261;28;20474;-48
2022/07/03 06:51:08;;;;;;;3.60;3.50;;;;;;;24.67;50.86;101607.78;5071996;28;20919;-47
2022/07/03 06:53:42;;;;;;;3.77;3.60;;;;;;;24.41;52.13;101616.16;5070823;28;20905;-50
2022/07/03 06:56:11;;;;;;;3.97;3.70;;;;;;;24.20;52.64;101602.44;5072239;28;20430;-52
2022/07/03 06:58:39;;;;;;;4.20;3.83;;;;;;;24.09;53.93;101606.19;5072228;28;20434;-48
2022/07/03 07:01:06;;;;;;;3.57;3.27;;;;;;;24.02;54.09;101607.50;5071977;28;20448;-48
2022/07/03 07:03:34;;;;;;;4.37;4.00;;;;;;;23.94;54.00;101610.75;5070929;28;20911;-48
2022/07/03 07:06:02;;;;;;;4.10;3.90;;;;;;;23.82;53.97;101612.84;5071862;28;20430;-46
2022/07/03 07:08:30;;;;;;;4.03;3.73;;;;;;;23.79;53.61;101616.09;5072067;28;20473;-50
2022/07/03 07:10:57;;;;;;;3.90;3.70;;;;;;;23.82;54.89;101607.41;5071199;28;20532;-46
2022/07/03 07:13:26;;;;;;;3.93;3.63;;;;;;;24.00;53.77;101607.78;5071081;28;20490;-47
2022/07/03 07:15:54;;;;;;;5.53;3.80;;;;;;;23.90;54.48;101615.06;5071911;28;20832;-49
2022/07/03 07:18:21;;;;;;;3.97;3.60;;;;;;;23.85;54.93;101615.03;5071720;28;20434;-46
2022/07/03 07:20:49;;;;;;;3.90;3.70;;;;;;;23.75;55.97;101615.78;5071599;28;20949;-48
2022/07/03 07:23:17;;;;;;;3.90;3.70;;;;;;;23.71;55.99;101611.97;5070963;28;20469;-49
2022/07/03 07:25:44;;;;;;;3.30;3.10;;;;;;;23.63;55.84;101613.28;5071631;28;20434;-46
2022/07/03 07:28:12;;;;;;;3.83;3.60;;;;;;;23.65;55.85;101616.53;5071569;28;20469;-45
2022/07/03 07:30:41;;;;;;;3.60;3.40;;;;;;;23.66;55.34;101620.09;5071737;28;20426;-52
2022/07/03 07:33:09;;;;;;;4.00;3.60;;;;;;;23.59;55.80;101622.25;5005561;28;20855;-45
2022/07/03 07:35:37;;;;;;;3.67;3.53;;;;;;;23.54;55.91;101633.91;5055398;28;20946;-48
2022/07/03 07:38:05;;;;;;;4.00;3.70;;;;;;;23.51;56.61;101628.16;5071484;28;20923;-47
2022/07/03 07:40:36;;;;;;;4.03;3.70;;;;;;;23.41;56.97;101630.81;5071576;28;20433;-48
2022/07/03 07:43:03;;;;;;;4.83;4.43;;;;;;;23.24;57.83;101630.91;5070772;28;20515;-48
2022/07/03 07:45:31;;;;;;;4.53;4.13;;;;;;;23.24;58.06;101630.91;5071444;28;20440;-49
2022/07/03 07:48:00;;;;;;;4.93;4.63;;;;;;;23.10;57.36;101624.25;5071213;28;20474;-45
2022/07/03 07:50:28;;;;;;;8.97;4.90;;;;;;;22.92;56.72;101627.31;5071106;28;20456;-47
2022/07/03 07:52:56;;;;;;;5.43;3.70;;;;;;;22.89;56.68;101631.38;5070747;28;20827;-49
2022/07/03 07:55:25;;;;;;;4.50;4.20;;;;;;;22.82;57.47;101624.53;5071333;28;20440;-47
2022/07/03 07:57:53;;;;;;;5.00;4.70;;;;;;;22.82;57.48;101621.81;5071334;28;20438;-46
2022/07/03 08:00:21;;;;;;;3.87;3.60;;;;;;;22.74;57.50;101611.38;5071193;28;20434;-50
2022/07/03 08:05:38;;;;;;;4.27;3.97;;;;;;;22.82;57.15;101619.09;5071342;28;20428;-45
2022/07/03 08:08:08;;;;;;;5.17;3.77;;;;;;;22.93;57.65;101618.09;5071315;28;20469;-48
2022/07/03 08:10:38;;;;;;;4.40;4.00;;;;;;;23.09;57.96;101625.31;5071226;28;20430;-46
2022/07/03 08:13:06;;;;;;;4.37;4.10;;;;;;;23.55;57.57;101616.50;5070535;28;20537;-47
2022/07/03 08:15:34;;;;;;;4.40;4.10;;;;;;;23.82;57.31;101621.84;5071165;28;20494;-47
2022/07/03 08:18:02;;;;;;;4.20;4.00;;;;;;;23.89;56.88;101621.63;5071282;28;20434;-47
2022/07/03 08:20:30;;;;;;;4.10;3.90;;;;;;;24.02;56.64;101618.41;5071280;28;20552;-53
2022/07/03 08:22:59;;;;;;;4.00;3.80;;;;;;;24.21;56.57;101625.09;5071904;28;20466;-48
2022/07/03 08:25:27;;;;;;;4.13;3.87;;;;;;;24.40;56.39;101620.78;5075127;28;20552;-50
2022/07/03 08:27:55;;;;;;;3.67;3.57;;;;;;;24.60;55.52;101625.50;5075040;28;20440;-49
2022/07/03 08:30:23;;;;;;;4.43;4.00;;;;;;;24.69;53.66;101623.91;5075033;28;20436;-47
2022/07/03 08:32:53;;;;;;;4.17;3.90;;;;;;;24.75;53.24;101620.91;5018809;28;20831;-47
2022/07/03 08:35:21;;;;;;;3.33;3.13;;;;;;;24.87;53.35;101622.59;5049598;28;20425;-51
2022/07/03 08:37:50;;;;;;;4.73;3.77;;;;;;;24.98;52.92;101635.97;5074556;28;20440;-50
2022/07/03 08:40:20;;;;;;;3.87;3.43;;;;;;;25.14;52.46;101634.94;5074641;28;20922;-48
2022/07/03 08:42:50;;;;;;;3.87;3.67;;;;;;;25.25;52.82;101633.84;5074056;28;20499;-46
2022/07/03 08:45:19;;;;;;;4.17;3.40;;;;;;;25.34;52.58;101625.91;5074724;28;20772;-49
2022/07/03 08:47:48;;;;;;;3.67;3.47;;;;;;;25.33;53.44;101633.28;5074548;28;20434;-48
2022/07/03 08:50:18;;;;;;;4.13;3.83;;;;;;;25.40;52.38;101638.47;5074273;28;20474;-50
2022/07/03 08:52:48;;;;;;;3.83;3.40;;;;;;;25.42;52.02;101630.03;5073905;28;20469;-47
2022/07/03 08:55:17;;;;;;;4.07;3.83;;;;;;;25.40;50.76;101634.91;5074593;28;20430;-47
2022/07/03 08:57:48;;;;;;;3.77;3.57;;;;;;;25.19;50.81;101637.66;5074311;28;20935;-48
2022/07/03 09:00:17;;;;;;;4.50;3.63;;;;;;;25.03;51.46;101649.63;5074384;28;20436;-50
2022/07/03 09:02:46;;;;;;;6.13;3.73;;;;;;;24.94;51.88;101642.28;5073260;28;20465;-51
2022/07/03 09:05:15;;;;;;;3.33;3.23;;;;;;;24.76;52.58;101649.81;5074284;28;20947;-48
2022/07/03 09:07:45;;;;;;;4.07;3.83;;;;;;;24.75;52.68;101641.91;5074186;28;20434;-48
2022/07/03 09:10:14;;;;;;;3.50;3.20;;;;;;;24.75;52.52;101644.63;5074034;28;20470;-47
2022/07/03 09:12:43;;;;;;;3.97;3.67;;;;;;;25.11;51.66;101645.56;5073342;28;20473;-49
2022/07/03 09:15:13;;;;;;;4.20;3.90;;;;;;;25.63;49.87;101639.84;5073808;28;20429;-49
2022/07/03 09:17:41;;;;;;;4.00;3.70;;;;;;;25.68;46.51;101637.13;5074142;28;20818;-51
2022/07/03 09:20:08;;;;;;;3.73;3.53;;;;;;;26.06;47.71;101641.97;5074174;28;20422;-50
2022/07/03 09:22:37;;;;;;;3.83;3.63;;;;;;;26.03;46.44;101630.75;5073518;28;20461;-49
2022/07/03 09:25:08;;;;;;;9.90;4.13;;;;;;;25.74;46.81;101642.31;5073859;28;20430;-51
2022/07/03 09:27:36;;;;;;;3.50;3.30;;;;;;;25.65;48.60;101633.03;5073639;28;21143;-50
2022/07/03 09:30:05;;;;;;;4.10;3.80;;;;;;;25.51;49.00;101642.03;5073647;28;20482;-50
2022/07/03 09:32:42;;;;;;;4.50;4.20;;;;;;;25.22;48.33;101645.28;5028714;28;20454;-49
2022/07/03 09:35:17;;;;;;;4.50;4.13;;;;;;;25.36;50.09;101642.03;4983088;28;20425;-52
2022/07/03 09:37:54;;;;;;;4.00;3.80;;;;;;;25.14;51.65;101634.94;4991355;28;20816;-50
2022/07/03 09:40:23;;;;;;;3.77;3.50;;;;;;;24.78;51.38;101650.38;4991184;28;20431;-49
2022/07/03 09:43:02;;;;;;;4.10;3.90;;;;;;;24.87;52.26;101647.16;4990556;28;20470;-48
2022/07/03 09:45:50;;;;;;;4.20;4.00;;;;;;;25.21;50.37;101643.66;4991176;28;20507;-52
2022/07/03 09:48:27;;;;;;;4.50;4.30;;;;;;;24.98;49.67;101644.16;4991121;28;20959;-54
2022/07/03 09:51:23;;;;;;;4.97;4.67;;;;;;;24.71;52.30;101652.53;4991385;28;20454;-49
2022/07/03 09:53:56;;;;;;;5.10;3.60;;;;;;;25.38;50.17;101646.13;4990603;28;20446;-53
2022/07/03 09:56:26;;;;;;;3.53;3.33;;;;;;;25.49;48.54;101653.25;4990995;28;20429;-52
2022/07/03 09:59:02;;;;;;;3.80;3.50;;;;;;;25.52;47.31;101649.16;4990885;28;20433;-50
2022/07/03 10:01:30;;;;;;;3.40;3.20;;;;;;;25.79;47.95;101650.50;4991036;28;20433;-49
2022/07/03 10:04:12;;;;;;;3.40;3.10;;;;;;;25.90;45.41;101659.47;4990472;28;21004;-52
2022/07/03 10:06:50;;;;;;;3.60;3.40;;;;;;;25.75;47.55;101654.84;4991019;28;20437;-49
2022/07/03 10:09:20;;;;;;;4.13;3.03;;;;;;;26.08;46.56;101649.88;4990820;28;20473;-48
2022/07/03 10:11:48;;;;;;;4.03;3.70;;;;;;;25.71;47.22;101651.06;4990624;28;20464;-50
2022/07/03 10:14:17;;;;;;;3.93;3.63;;;;;;;25.77;46.91;101657.34;4990671;28;20452;-52
2022/07/03 10:16:45;;;;;;;3.97;3.10;;;;;;;26.00;46.51;101651.25;4990924;28;20444;-48
2022/07/03 10:19:18;;;;;;;3.07;2.87;;;;;;;26.15;46.37;101653.16;4990725;28;20517;-53
2022/07/03 10:21:51;;;;;;;3.27;3.17;;;;;;;26.00;47.07;101648.53;4990198;28;20457;-51
2022/07/03 10:24:22;;;;;;;3.87;3.57;;;;;;;25.83;47.71;101639.84;4990627;28;20454;-48
2022/07/03 10:26:50;;;;;;;6.00;3.00;;;;;;;26.43;47.38;101641.59;4990696;28;20442;-51
2022/07/03 10:29:20;;;;;;;2.70;2.43;;;;;;;26.81;43.47;101643.59;4990549;28;20477;-51
2022/07/03 10:31:55;;;;;;;2.83;2.70;;;;;;;26.27;44.35;101638.09;4988158;28;20819;-49
2022/07/03 10:34:25;;;;;;;3.33;3.23;;;;;;;25.84;46.46;101636.81;5008060;28;20452;-49
2022/07/03 10:36:57;;;;;;;3.93;3.63;;;;;;;25.74;47.13;101642.31;5072474;28;20444;-49
2022/07/03 10:39:36;;;;;;;3.10;2.90;;;;;;;25.47;47.78;101636.28;5072634;28;20421;-53
2022/07/03 10:45:06;;;;;;;4.70;3.13;;;;;;;25.90;47.70;101631.31;5072029;28;20442;-50
2022/07/03 10:47:38;;;;;;;2.93;2.60;;;;;;;26.41;46.14;101638.28;5072529;28;20549;-50
2022/07/03 10:50:11;;;;;;;6.30;2.90;;;;;;;26.74;45.09;101637.59;5072294;28;20975;-48
2022/07/03 10:52:42;;;;;;;2.90;2.70;;;;;;;26.16;44.78;101628.31;5071605;28;20464;-49
2022/07/03 10:55:11;;;;;;;2.97;2.63;;;;;;;26.65;44.38;101630.25;5072112;28;20933;-46
2022/07/03 10:57:39;;;;;;;3.43;3.00;;;;;;;26.48;42.73;101627.88;5072063;28;20442;-52
2022/07/03 11:00:12;;;;;;;3.03;2.83;;;;;;;26.59;44.06;101620.44;5072242;28;20524;-48
2022/07/03 11:02:41;;;;;;;5.13;3.43;;;;;;;27.23;43.04;101617.56;5071333;28;21009;-47
2022/07/03 11:05:18;;;;;;;3.67;3.47;;;;;;;27.03;43.00;101618.53;5072144;28;20433;-50
2022/07/03 11:08:04;;;;;;;3.47;3.17;;;;;;;26.19;43.10;101619.53;5071802;28;20444;-51
2022/07/03 11:10:40;;;;;;;3.33;3.13;;;;;;;26.35;42.57;101612.06;5072020;28;20461;-49
2022/07/03 11:13:10;;;;;;;2.87;2.67;;;;;;;26.62;44.47;101617.94;5071254;28;20610;-51
2022/07/03 11:15:41;;;;;;;2.63;2.50;;;;;;;26.94;43.24;101618.31;5071852;28;20537;-50
2022/07/03 11:18:17;;;;;;;2.80;2.60;;;;;;;27.07;43.55;101622.34;5071660;28;20529;-49
2022/07/03 11:21:28;;;;;;;2.63;2.50;;;;;;;27.68;42.04;101622.66;5071971;28;20425;-51
2022/07/03 11:24:32;;;;;;;2.90;2.80;;;;;;;28.04;39.38;101625.88;5071478;28;20977;-49
2022/07/03 11:27:19;;;;;;;3.30;3.10;;;;;;;27.93;39.61;101627.03;5072027;28;20444;-52
2022/07/03 11:29:58;;;;;;;3.43;3.23;;;;;;;27.98;40.43;101614.13;5071791;28;20827;-51
2022/07/03 11:32:49;;;;;;;2.93;2.73;;;;;;;28.12;41.38;101618.91;5030810;28;20457;-48
2022/07/03 11:35:49;;;;;;;3.17;3.03;;;;;;;28.57;41.05;101618.34;4983311;28;20429;-50
2022/07/03 11:38:22;;;;;;;3.57;3.27;;;;;;;28.84;39.86;101610.28;4989591;28;20451;-49
2022/07/03 11:40:52;;;;;;;3.97;2.87;;;;;;;28.53;39.30;101609.88;4989651;28;20654;-50
2022/07/03 11:43:19;;;;;;;3.00;2.80;;;;;;;28.50;40.83;101609.66;4988522;28;20470;-50
2022/07/03 11:45:49;;;;;;;2.90;2.80;;;;;;;27.95;39.75;101611.97;4989580;28;20448;-53
2022/07/03 11:48:18;;;;;;;3.37;3.17;;;;;;;27.64;40.03;101613.38;4989772;28;20430;-50